sensor_id;sensor_type;location;lat;lon;timestamp;pressure;altitude;pressure_sealevel;temperature;humidity
73817;BME280;62146;53.232;-1.304;2022-10-22T00:02:18;98812.84;;;15.43;96.37
73817;BME280;62146;53.232;-1.304;2022-10-22T00:04:49;98827.59;;;15.41;95.93
73817;BME280;62146;53.232;-1.304;2022-10-22T00:07:17;98827.44;;;15.37;96.22
73817;BME280;62146;53.232;-1.304;2022-10-22T00:09:44;98828.84;;;15.35;96.43
73817;BME280;62146;53.232;-1.304;2022-10-22T00:12:12;98841.72;;;15.33;96.81
73817;BME280;62146;53.232;-1.304;2022-10-22T00:14:38;98839.19;;;15.28;96.58
73817;BME280;62146;53.232;-1.304;2022-10-22T00:17:05;98834.44;;;15.25;96.79
73817;BME280;62146;53.232;-1.304;2022-10-22T00:19:37;98831.78;;;15.25;96.83
73817;BME280;62146;53.232;-1.304;2022-10-22T00:22:04;98841.19;;;15.23;96.72
73817;BME280;62146;53.232;-1.304;2022-10-22T00:24:32;98840.72;;;15.21;96.82
73817;BME280;62146;53.232;-1.304;2022-10-22T00:26:59;98843.66;;;15.19;96.45
73817;BME280;62146;53.232;-1.304;2022-10-22T00:29:26;98852.31;;;15.16;96.52
73817;BME280;62146;53.232;-1.304;2022-10-22T00:31:53;98859.06;;;15.14;96.51
73817;BME280;62146;53.232;-1.304;2022-10-22T00:34:25;98858.09;;;15.10;96.80
73817;BME280;62146;53.232;-1.304;2022-10-22T00:36:51;98850.41;;;15.08;96.38
73817;BME280;62146;53.232;-1.304;2022-10-22T00:39:20;98864.81;;;15.07;96.35
73817;BME280;62146;53.232;-1.304;2022-10-22T00:41:49;98856.59;;;15.04;96.59
73817;BME280;62146;53.232;-1.304;2022-10-22T00:47:21;98875.28;;;15.04;96.18
73817;BME280;62146;53.232;-1.304;2022-10-22T00:49:50;98863.34;;;15.01;96.56
73817;BME280;62146;53.232;-1.304;2022-10-22T00:52:18;98865.22;;;15.01;96.37
73817;BME280;62146;53.232;-1.304;2022-10-22T00:54:45;98868.19;;;14.99;96.54
73817;BME280;62146;53.232;-1.304;2022-10-22T00:57:11;98869.59;;;14.97;96.54
73817;BME280;62146;53.232;-1.304;2022-10-22T00:59:38;98868.81;;;14.97;96.39
73817;BME280;62146;53.232;-1.304;2022-10-22T01:02:05;98872.88;;;14.94;96.41
73817;BME280;62146;53.232;-1.304;2022-10-22T01:04:31;98876.94;;;14.92;96.43
73817;BME280;62146;53.232;-1.304;2022-10-22T01:06:58;98892.94;;;14.92;96.46
73817;BME280;62146;53.232;-1.304;2022-10-22T01:12:08;98895.94;;;14.90;96.54
73817;BME280;62146;53.232;-1.304;2022-10-22T01:19:49;98903.44;;;14.88;96.44
73817;BME280;62146;53.232;-1.304;2022-10-22T01:25:10;98910.97;;;14.86;96.36
73817;BME280;62146;53.232;-1.304;2022-10-22T01:30:13;98929.34;;;14.88;96.37
73817;BME280;62146;53.232;-1.304;2022-10-22T01:32:47;98929.34;;;14.88;96.50
73817;BME280;62146;53.232;-1.304;2022-10-22T01:35:20;98937.56;;;14.91;96.39
73817;BME280;62146;53.232;-1.304;2022-10-22T01:37:53;98934.88;;;14.91;96.57
73817;BME280;62146;53.232;-1.304;2022-10-22T01:40:22;98942.88;;;14.91;96.39
73817;BME280;62146;53.232;-1.304;2022-10-22T01:42:56;98947.75;;;14.89;96.43
73817;BME280;62146;53.232;-1.304;2022-10-22T01:45:23;98954.34;;;14.92;96.50
73817;BME280;62146;53.232;-1.304;2022-10-22T01:50:50;98958.63;;;14.93;96.08
73817;BME280;62146;53.232;-1.304;2022-10-22T01:58:51;98960.19;;;14.94;96.47
73817;BME280;62146;53.232;-1.304;2022-10-22T02:01:30;98953.38;;;14.88;96.49
73817;BME280;62146;53.232;-1.304;2022-10-22T02:06:29;98966.13;;;14.91;96.59
73817;BME280;62146;53.232;-1.304;2022-10-22T02:08:59;98957.94;;;14.87;96.62
73817;BME280;62146;53.232;-1.304;2022-10-22T02:11:28;98952.59;;;14.87;96.42
73817;BME280;62146;53.232;-1.304;2022-10-22T02:13:57;98966.84;;;14.83;96.58
73817;BME280;62146;53.232;-1.304;2022-10-22T02:16:33;98970.91;;;14.80;96.90
73817;BME280;62146;53.232;-1.304;2022-10-22T02:19:09;98986.13;;;14.80;96.38
73817;BME280;62146;53.232;-1.304;2022-10-22T02:21:38;98977.66;;;14.78;96.84
73817;BME280;62146;53.232;-1.304;2022-10-22T02:24:05;98984.06;;;14.77;96.86
73817;BME280;62146;53.232;-1.304;2022-10-22T02:26:42;98981.81;;;14.71;96.56
73817;BME280;62146;53.232;-1.304;2022-10-22T02:29:17;98979.44;;;14.69;96.92
73817;BME280;62146;53.232;-1.304;2022-10-22T02:31:47;98989.63;;;14.67;96.70
73817;BME280;62146;53.232;-1.304;2022-10-22T02:34:18;98992.28;;;14.67;96.97
73817;BME280;62146;53.232;-1.304;2022-10-22T02:36:47;99008.19;;;14.72;97.04
73817;BME280;62146;53.232;-1.304;2022-10-22T02:39:16;98994.84;;;14.72;96.54
73817;BME280;62146;53.232;-1.304;2022-10-22T02:41:44;99006.31;;;14.73;96.33
73817;BME280;62146;53.232;-1.304;2022-10-22T02:44:11;99012.44;;;14.73;96.67
73817;BME280;62146;53.232;-1.304;2022-10-22T02:46:38;99008.97;;;14.73;96.78
73817;BME280;62146;53.232;-1.304;2022-10-22T02:49:05;99008.78;;;14.69;96.73
73817;BME280;62146;53.232;-1.304;2022-10-22T02:51:32;99012.25;;;14.70;96.88
73817;BME280;62146;53.232;-1.304;2022-10-22T02:53:59;99014.75;;;14.66;96.55
73817;BME280;62146;53.232;-1.304;2022-10-22T02:56:26;99025.69;;;14.65;96.46
73817;BME280;62146;53.232;-1.304;2022-10-22T02:58:52;99016.44;;;14.62;96.43
73817;BME280;62146;53.232;-1.304;2022-10-22T03:01:19;99018.59;;;14.60;96.56
73817;BME280;62146;53.232;-1.304;2022-10-22T03:03:45;99026.41;;;14.57;96.43
73817;BME280;62146;53.232;-1.304;2022-10-22T03:06:12;99031.25;;;14.55;96.82
73817;BME280;62146;53.232;-1.304;2022-10-22T03:08:39;99033.72;;;14.51;97.14
73817;BME280;62146;53.232;-1.304;2022-10-22T03:11:05;99037.19;;;14.52;97.11
73817;BME280;62146;53.232;-1.304;2022-10-22T03:13:32;99035.28;;;14.52;96.90
73817;BME280;62146;53.232;-1.304;2022-10-22T03:15:58;99037.19;;;14.52;96.46
73817;BME280;62146;53.232;-1.304;2022-10-22T03:18:25;99036.41;;;14.51;96.41
73817;BME280;62146;53.232;-1.304;2022-10-22T03:21:12;99041.41;;;14.53;96.36
73817;BME280;62146;53.232;-1.304;2022-10-22T03:23:41;99047.53;;;14.53;96.70
73817;BME280;62146;53.232;-1.304;2022-10-22T03:26:09;99046.75;;;14.53;96.53
73817;BME280;62146;53.232;-1.304;2022-10-22T03:28:39;99045.47;;;14.50;96.52
73817;BME280;62146;53.232;-1.304;2022-10-22T03:31:06;99057.94;;;14.55;96.18
73817;BME280;62146;53.232;-1.304;2022-10-22T03:33:33;99061.66;;;14.54;96.35
73817;BME280;62146;53.232;-1.304;2022-10-22T03:35:59;99068.88;;;14.53;96.17
73817;BME280;62146;53.232;-1.304;2022-10-22T03:38:26;99062.75;;;14.53;96.05
73817;BME280;62146;53.232;-1.304;2022-10-22T03:40:54;99069.97;;;14.52;96.20
73817;BME280;62146;53.232;-1.304;2022-10-22T03:43:20;99072.13;;;14.50;96.19
73817;BME280;62146;53.232;-1.304;2022-10-22T03:45:47;99085.19;;;14.52;96.36
73817;BME280;62146;53.232;-1.304;2022-10-22T03:48:13;99092.22;;;14.48;96.00
73817;BME280;62146;53.232;-1.304;2022-10-22T03:50:40;99088.56;;;14.44;96.40
73817;BME280;62146;53.232;-1.304;2022-10-22T03:53:06;99102.69;;;14.45;96.79
73817;BME280;62146;53.232;-1.304;2022-10-22T03:55:36;99096.38;;;14.41;96.28
73817;BME280;62146;53.232;-1.304;2022-10-22T03:58:04;99106.53;;;14.39;96.43
73817;BME280;62146;53.232;-1.304;2022-10-22T04:00:31;99115.41;;;14.34;96.48
73817;BME280;62146;53.232;-1.304;2022-10-22T04:02:57;99122.63;;;14.34;96.62
73817;BME280;62146;53.232;-1.304;2022-10-22T04:05:24;99128.28;;;14.32;96.56
73817;BME280;62146;53.232;-1.304;2022-10-22T04:07:51;99124.81;;;14.32;96.49
73817;BME280;62146;53.232;-1.304;2022-10-22T04:10:17;99132.81;;;14.32;96.35
73817;BME280;62146;53.232;-1.304;2022-10-22T04:12:46;99129.94;;;14.28;96.47
73817;BME280;62146;53.232;-1.304;2022-10-22T04:15:13;99132.50;;;14.33;96.65
73817;BME280;62146;53.232;-1.304;2022-10-22T04:17:40;99138.63;;;14.34;96.35
73817;BME280;62146;53.232;-1.304;2022-10-22T04:20:07;99150.09;;;14.34;96.22
73817;BME280;62146;53.232;-1.304;2022-10-22T04:22:34;99146.63;;;14.34;96.18
73817;BME280;62146;53.232;-1.304;2022-10-22T04:25:02;99150.59;;;14.36;96.15
73817;BME280;62146;53.232;-1.304;2022-10-22T04:27:30;99160.97;;;14.38;96.74
73817;BME280;62146;53.232;-1.304;2022-10-22T04:29:57;99159.38;;;14.37;96.79
73817;BME280;62146;53.232;-1.304;2022-10-22T04:32:25;99166.00;;;14.39;96.36
73817;BME280;62146;53.232;-1.304;2022-10-22T04:34:52;99173.22;;;14.39;96.45
73817;BME280;62146;53.232;-1.304;2022-10-22T04:37:18;99176.66;;;14.39;96.37
73817;BME280;62146;53.232;-1.304;2022-10-22T04:39:45;99192.88;;;14.43;96.40
73817;BME280;62146;53.232;-1.304;2022-10-22T04:42:11;99183.00;;;14.43;96.10
73817;BME280;62146;53.232;-1.304;2022-10-22T04:44:38;99200.09;;;14.42;96.40
73817;BME280;62146;53.232;-1.304;2022-10-22T04:47:04;99189.72;;;14.41;96.05
73817;BME280;62146;53.232;-1.304;2022-10-22T04:49:31;99201.97;;;14.42;96.25
73817;BME280;62146;53.232;-1.304;2022-10-22T04:51:58;99196.44;;;14.38;96.26
73817;BME280;62146;53.232;-1.304;2022-10-22T04:54:24;99203.16;;;14.36;96.39
73817;BME280;62146;53.232;-1.304;2022-10-22T04:56:57;99199.19;;;14.33;96.67
73817;BME280;62146;53.232;-1.304;2022-10-22T04:59:24;99213.41;;;14.29;96.62
73817;BME280;62146;53.232;-1.304;2022-10-22T05:01:50;99211.00;;;14.27;96.89
73817;BME280;62146;53.232;-1.304;2022-10-22T05:04:17;99215.34;;;14.23;96.87
73817;BME280;62146;53.232;-1.304;2022-10-22T05:06:45;99217.81;;;14.20;96.62
73817;BME280;62146;53.232;-1.304;2022-10-22T05:09:14;99222.94;;;14.17;96.41
73817;BME280;62146;53.232;-1.304;2022-10-22T05:11:44;99228.06;;;14.13;96.34
73817;BME280;62146;53.232;-1.304;2022-10-22T05:14:11;99224.09;;;14.11;96.47
73817;BME280;62146;53.232;-1.304;2022-10-22T05:16:38;99234.53;;;14.07;96.35
73817;BME280;62146;53.232;-1.304;2022-10-22T05:19:05;99241.53;;;14.03;96.17
73817;BME280;62146;53.232;-1.304;2022-10-22T05:21:32;99240.53;;;13.99;96.37
73817;BME280;62146;53.232;-1.304;2022-10-22T05:23:59;99258.69;;;13.97;96.11
73817;BME280;62146;53.232;-1.304;2022-10-22T05:26:27;99248.63;;;13.94;96.02
73817;BME280;62146;53.232;-1.304;2022-10-22T05:28:55;99253.19;;;13.89;95.84
73817;BME280;62146;53.232;-1.304;2022-10-22T05:31:21;99245.56;;;13.83;95.99
73817;BME280;62146;53.232;-1.304;2022-10-22T05:33:48;99256.50;;;13.81;95.70
73817;BME280;62146;53.232;-1.304;2022-10-22T05:36:19;99267.44;;;13.80;95.61
73817;BME280;62146;53.232;-1.304;2022-10-22T05:38:47;99268.81;;;13.77;95.32
73817;BME280;62146;53.232;-1.304;2022-10-22T05:41:19;99265.69;;;13.70;95.39
73817;BME280;62146;53.232;-1.304;2022-10-22T05:43:46;99271.84;;;13.71;95.45
73817;BME280;62146;53.232;-1.304;2022-10-22T05:46:16;99272.69;;;13.66;95.16
73817;BME280;62146;53.232;-1.304;2022-10-22T05:48:56;99268.50;;;13.61;95.27
73817;BME280;62146;53.232;-1.304;2022-10-22T05:51:25;99281.91;;;13.56;94.99
73817;BME280;62146;53.232;-1.304;2022-10-22T05:53:54;99285.63;;;13.55;94.98
73817;BME280;62146;53.232;-1.304;2022-10-22T05:56:21;99276.34;;;13.52;95.09
73817;BME280;62146;53.232;-1.304;2022-10-22T05:58:48;99281.72;;;13.47;95.03
73817;BME280;62146;53.232;-1.304;2022-10-22T06:01:17;99289.47;;;13.44;94.76
73817;BME280;62146;53.232;-1.304;2022-10-22T06:03:45;99298.84;;;13.41;94.74
73817;BME280;62146;53.232;-1.304;2022-10-22T06:08:50;99308.47;;;13.38;94.62
73817;BME280;62146;53.232;-1.304;2022-10-22T06:11:18;99308.53;;;13.33;94.38
73817;BME280;62146;53.232;-1.304;2022-10-22T06:13:46;99311.25;;;13.28;94.51
73817;BME280;62146;53.232;-1.304;2022-10-22T06:16:13;99315.56;;;13.24;94.67
73817;BME280;62146;53.232;-1.304;2022-10-22T06:18:40;99324.09;;;13.21;94.30
73817;BME280;62146;53.232;-1.304;2022-10-22T06:21:11;99326.03;;;13.15;94.65
73817;BME280;62146;53.232;-1.304;2022-10-22T06:23:38;99343.88;;;13.15;94.27
73817;BME280;62146;53.232;-1.304;2022-10-22T06:26:06;99340.19;;;13.11;94.50
73817;BME280;62146;53.232;-1.304;2022-10-22T06:28:33;99344.50;;;13.07;94.35
73817;BME280;62146;53.232;-1.304;2022-10-22T06:31:01;99351.44;;;13.03;94.49
73817;BME280;62146;53.232;-1.304;2022-10-22T06:33:29;99355.44;;;13.01;94.10
73817;BME280;62146;53.232;-1.304;2022-10-22T06:36:04;99351.25;;;12.95;94.26
73817;BME280;62146;53.232;-1.304;2022-10-22T06:38:33;99355.06;;;12.84;94.19
73817;BME280;62146;53.232;-1.304;2022-10-22T06:41:04;99356.19;;;12.78;94.44
73817;BME280;62146;53.232;-1.304;2022-10-22T06:43:31;99359.38;;;12.80;94.50
73817;BME280;62146;53.232;-1.304;2022-10-22T06:45:59;99366.56;;;12.80;94.41
73817;BME280;62146;53.232;-1.304;2022-10-22T06:48:26;99373.22;;;12.77;94.16
73817;BME280;62146;53.232;-1.304;2022-10-22T06:50:53;99376.44;;;12.74;94.03
73817;BME280;62146;53.232;-1.304;2022-10-22T06:53:19;99376.16;;;12.71;94.18
73817;BME280;62146;53.232;-1.304;2022-10-22T06:55:51;99382.56;;;12.70;93.86
73817;BME280;62146;53.232;-1.304;2022-10-22T06:58:17;99389.50;;;12.66;94.01
73817;BME280;62146;53.232;-1.304;2022-10-22T07:00:44;99386.31;;;12.64;93.91
73817;BME280;62146;53.232;-1.304;2022-10-22T07:03:12;99391.13;;;12.62;94.07
73817;BME280;62146;53.232;-1.304;2022-10-22T07:05:40;99396.44;;;12.62;93.89
73817;BME280;62146;53.232;-1.304;2022-10-22T07:08:07;99397.81;;;12.55;93.98
73817;BME280;62146;53.232;-1.304;2022-10-22T07:10:34;99397.88;;;12.50;94.37
73817;BME280;62146;53.232;-1.304;2022-10-22T07:13:00;99399.94;;;12.53;94.09
73817;BME280;62146;53.232;-1.304;2022-10-22T07:15:27;99403.97;;;12.50;94.05
73817;BME280;62146;53.232;-1.304;2022-10-22T07:17:53;99407.72;;;12.49;94.24
73817;BME280;62146;53.232;-1.304;2022-10-22T07:20:20;99413.03;;;12.49;94.11
73817;BME280;62146;53.232;-1.304;2022-10-22T07:22:46;99420.47;;;12.47;94.15
73817;BME280;62146;53.232;-1.304;2022-10-22T07:25:13;99414.41;;;12.42;94.16
73817;BME280;62146;53.232;-1.304;2022-10-22T07:27:39;99417.06;;;12.42;94.20
73817;BME280;62146;53.232;-1.304;2022-10-22T07:30:08;99424.75;;;12.43;93.80
73817;BME280;62146;53.232;-1.304;2022-10-22T07:32:34;99435.69;;;12.42;94.26
73817;BME280;62146;53.232;-1.304;2022-10-22T07:35:02;99440.47;;;12.40;94.14
73817;BME280;62146;53.232;-1.304;2022-10-22T07:37:29;99443.91;;;12.40;94.10
73817;BME280;62146;53.232;-1.304;2022-10-22T07:39:56;99450.31;;;12.39;94.57
73817;BME280;62146;53.232;-1.304;2022-10-22T07:42:29;99460.69;;;12.36;94.89
73817;BME280;62146;53.232;-1.304;2022-10-22T07:45:00;99461.47;;;12.36;94.78
73817;BME280;62146;53.232;-1.304;2022-10-22T07:47:27;99454.03;;;12.33;95.00
73817;BME280;62146;53.232;-1.304;2022-10-22T07:49:53;99464.69;;;12.33;95.41
73817;BME280;62146;53.232;-1.304;2022-10-22T07:52:20;99464.44;;;12.35;95.14
73817;BME280;62146;53.232;-1.304;2022-10-22T07:54:46;99462.28;;;12.42;95.30
73817;BME280;62146;53.232;-1.304;2022-10-22T07:57:13;99470.50;;;12.45;94.59
73817;BME280;62146;53.232;-1.304;2022-10-22T07:59:39;99467.81;;;12.50;94.64
73817;BME280;62146;53.232;-1.304;2022-10-22T08:02:06;99482.66;;;12.56;94.47
73817;BME280;62146;53.232;-1.304;2022-10-22T08:04:32;99478.13;;;12.61;93.98
73817;BME280;62146;53.232;-1.304;2022-10-22T08:06:59;99490.06;;;12.69;94.03
73817;BME280;62146;53.232;-1.304;2022-10-22T08:09:26;99467.97;;;12.73;93.83
73817;BME280;62146;53.232;-1.304;2022-10-22T08:11:53;99476.69;;;12.79;93.38
73817;BME280;62146;53.232;-1.304;2022-10-22T08:14:20;99481.47;;;12.82;93.51
73817;BME280;62146;53.232;-1.304;2022-10-22T08:16:47;99489.41;;;12.86;93.12
73817;BME280;62146;53.232;-1.304;2022-10-22T08:19:13;99500.31;;;12.90;93.20
73817;BME280;62146;53.232;-1.304;2022-10-22T08:21:44;99502.97;;;12.95;93.44
73817;BME280;62146;53.232;-1.304;2022-10-22T08:24:11;99506.66;;;12.99;93.48
73817;BME280;62146;53.232;-1.304;2022-10-22T08:26:39;99510.38;;;13.03;93.39
73817;BME280;62146;53.232;-1.304;2022-10-22T08:29:06;99511.06;;;13.13;93.34
73817;BME280;62146;53.232;-1.304;2022-10-22T08:31:33;99520.63;;;13.19;92.35
73817;BME280;62146;53.232;-1.304;2022-10-22T08:34:00;99521.66;;;13.23;92.31
73817;BME280;62146;53.232;-1.304;2022-10-22T08:36:26;99522.16;;;13.30;92.37
73817;BME280;62146;53.232;-1.304;2022-10-22T08:38:53;99528.75;;;13.37;92.66
73817;BME280;62146;53.232;-1.304;2022-10-22T08:41:21;99530.81;;;13.40;92.51
73817;BME280;62146;53.232;-1.304;2022-10-22T08:49:04;99546.97;;;13.53;93.06
73817;BME280;62146;53.232;-1.304;2022-10-22T08:51:39;99549.56;;;13.63;93.57
73817;BME280;62146;53.232;-1.304;2022-10-22T09:08:28;99556.06;;;14.36;99.97
73817;BME280;62146;53.232;-1.304;2022-10-22T09:11:01;99565.47;;;14.52;100.00
73817;BME280;62146;53.232;-1.304;2022-10-22T09:13:29;99566.88;;;14.68;100.00
73817;BME280;62146;53.232;-1.304;2022-10-22T09:16:01;99567.19;;;14.84;100.00
73817;BME280;62146;53.232;-1.304;2022-10-22T09:18:49;99562.22;;;14.96;100.00
73817;BME280;62146;53.232;-1.304;2022-10-22T09:21:41;99562.56;;;15.13;100.00
73817;BME280;62146;53.232;-1.304;2022-10-22T09:24:14;99563.41;;;15.27;100.00
73817;BME280;62146;53.232;-1.304;2022-10-22T09:26:44;99552.03;;;15.39;100.00
73817;BME280;62146;53.232;-1.304;2022-10-22T09:29:20;99555.84;;;15.52;100.00
73817;BME280;62146;53.232;-1.304;2022-10-22T09:31:49;99571.13;;;15.64;100.00
73817;BME280;62146;53.232;-1.304;2022-10-22T09:34:20;99577.63;;;15.77;100.00
73817;BME280;62146;53.232;-1.304;2022-10-22T09:36:56;99580.09;;;15.86;100.00
73817;BME280;62146;53.232;-1.304;2022-10-22T09:39:31;99580.16;;;16.00;100.00
73817;BME280;62146;53.232;-1.304;2022-10-22T09:41:57;99575.44;;;16.10;100.00
73817;BME280;62146;53.232;-1.304;2022-10-22T09:44:24;99570.13;;;16.23;100.00
73817;BME280;62146;53.232;-1.304;2022-10-22T09:46:53;99575.78;;;16.35;100.00
73817;BME280;62146;53.232;-1.304;2022-10-22T09:49:21;99579.34;;;16.44;100.00
73817;BME280;62146;53.232;-1.304;2022-10-22T09:51:58;99583.41;;;16.55;100.00
73817;BME280;62146;53.232;-1.304;2022-10-22T09:57:03;99586.41;;;16.80;100.00
73817;BME280;62146;53.232;-1.304;2022-10-22T09:59:32;99591.72;;;16.93;100.00
73817;BME280;62146;53.232;-1.304;2022-10-22T10:02:10;99595.28;;;17.02;100.00
73817;BME280;62146;53.232;-1.304;2022-10-22T10:04:54;99601.97;;;17.17;100.00
73817;BME280;62146;53.232;-1.304;2022-10-22T10:07:26;99601.72;;;17.27;100.00
73817;BME280;62146;53.232;-1.304;2022-10-22T10:09:55;99599.81;;;17.41;100.00
73817;BME280;62146;53.232;-1.304;2022-10-22T10:29:59;99620.25;;;18.37;100.00
73817;BME280;62146;53.232;-1.304;2022-10-22T10:35:28;99616.88;;;18.61;100.00
73817;BME280;62146;53.232;-1.304;2022-10-22T10:41:02;99635.84;;;18.86;100.00
73817;BME280;62146;53.232;-1.304;2022-10-22T10:43:49;99632.84;;;18.96;100.00
73817;BME280;62146;53.232;-1.304;2022-10-22T10:56:39;99665.88;;;19.43;100.00
73817;BME280;62146;53.232;-1.304;2022-10-22T10:59:11;99676.97;;;19.50;100.00
73817;BME280;62146;53.232;-1.304;2022-10-22T11:04:23;99673.38;;;19.71;100.00
73817;BME280;62146;53.232;-1.304;2022-10-22T11:06:59;99670.38;;;19.81;100.00
73817;BME280;62146;53.232;-1.304;2022-10-22T11:09:49;99687.81;;;19.92;100.00
73817;BME280;62146;53.232;-1.304;2022-10-22T11:12:26;99665.31;;;19.96;100.00
73817;BME280;62146;53.232;-1.304;2022-10-22T11:15:05;99685.59;;;20.11;100.00
73817;BME280;62146;53.232;-1.304;2022-10-22T11:17:45;99692.88;;;20.18;100.00
73817;BME280;62146;53.232;-1.304;2022-10-22T11:20:23;99689.69;;;20.25;100.00
73817;BME280;62146;53.232;-1.304;2022-10-22T11:22:54;99693.97;;;20.34;100.00
73817;BME280;62146;53.232;-1.304;2022-10-22T11:25:45;99696.94;;;20.41;100.00
73817;BME280;62146;53.232;-1.304;2022-10-22T11:28:43;99691.41;;;20.46;100.00
73817;BME280;62146;53.232;-1.304;2022-10-22T11:31:15;99692.63;;;20.48;100.00
73817;BME280;62146;53.232;-1.304;2022-10-22T11:36:11;99690.44;;;20.50;100.00
73817;BME280;62146;53.232;-1.304;2022-10-22T11:38:38;99698.84;;;20.57;100.00
73817;BME280;62146;53.232;-1.304;2022-10-22T11:41:10;99699.47;;;20.63;100.00
73817;BME280;62146;53.232;-1.304;2022-10-22T11:49:40;99704.16;;;20.91;100.00
73817;BME280;62146;53.232;-1.304;2022-10-22T11:52:37;99704.41;;;21.06;100.00
73817;BME280;62146;53.232;-1.304;2022-10-22T11:58:01;99701.13;;;21.20;100.00
73817;BME280;62146;53.232;-1.304;2022-10-22T12:00:46;99692.88;;;21.25;100.00
73817;BME280;62146;53.232;-1.304;2022-10-22T12:03:19;99690.81;;;21.31;100.00
73817;BME280;62146;53.232;-1.304;2022-10-22T12:11:45;99697.88;;;21.44;99.81
73817;BME280;62146;53.232;-1.304;2022-10-22T12:14:34;99696.91;;;21.48;99.36
73817;BME280;62146;53.232;-1.304;2022-10-22T12:17:11;99698.78;;;21.56;99.54
73817;BME280;62146;53.232;-1.304;2022-10-22T12:19:42;99701.41;;;21.64;99.22
73817;BME280;62146;53.232;-1.304;2022-10-22T12:24:41;99698.13;;;21.79;97.84
73817;BME280;62146;53.232;-1.304;2022-10-22T12:27:24;99705.38;;;21.87;97.09
73817;BME280;62146;53.232;-1.304;2022-10-22T12:29:56;99700.34;;;21.97;96.57
73817;BME280;62146;53.232;-1.304;2022-10-22T12:32:37;99698.25;;;22.02;96.57
73817;BME280;62146;53.232;-1.304;2022-10-22T12:35:06;99703.41;;;22.16;96.36
73817;BME280;62146;53.232;-1.304;2022-10-22T12:37:35;99696.81;;;22.25;96.53
73817;BME280;62146;53.232;-1.304;2022-10-22T12:40:19;99693.47;;;22.28;96.50
73817;BME280;62146;53.232;-1.304;2022-10-22T12:43:00;99686.72;;;22.34;96.19
73817;BME280;62146;53.232;-1.304;2022-10-22T12:45:29;99691.81;;;22.35;96.20
73817;BME280;62146;53.232;-1.304;2022-10-22T12:48:03;99688.34;;;22.47;96.35
73817;BME280;62146;53.232;-1.304;2022-10-22T12:50:35;99682.25;;;22.50;96.45
73817;BME280;62146;53.232;-1.304;2022-10-22T12:53:16;99691.41;;;22.57;95.92
73817;BME280;62146;53.232;-1.304;2022-10-22T12:55:49;99689.06;;;22.67;96.28
73817;BME280;62146;53.232;-1.304;2022-10-22T12:58:19;99677.41;;;22.75;96.34
73817;BME280;62146;53.232;-1.304;2022-10-22T13:00:47;99682.03;;;22.86;96.31
73817;BME280;62146;53.232;-1.304;2022-10-22T13:03:32;99671.00;;;22.91;96.63
73817;BME280;62146;53.232;-1.304;2022-10-22T13:11:37;99682.28;;;22.82;96.00
73817;BME280;62146;53.232;-1.304;2022-10-22T13:14:26;99670.94;;;22.68;96.12
73817;BME280;62146;53.232;-1.304;2022-10-22T13:17:13;99679.38;;;22.55;95.00
73817;BME280;62146;53.232;-1.304;2022-10-22T13:27:49;99679.22;;;22.19;94.31
73817;BME280;62146;53.232;-1.304;2022-10-22T13:32:55;99692.59;;;22.16;93.07
73817;BME280;62146;53.232;-1.304;2022-10-22T13:35:25;99697.56;;;22.14;92.92
73817;BME280;62146;53.232;-1.304;2022-10-22T13:37:53;99701.19;;;22.18;92.67
73817;BME280;62146;53.232;-1.304;2022-10-22T13:40:19;99689.38;;;22.22;92.45
73817;BME280;62146;53.232;-1.304;2022-10-22T13:42:46;99700.44;;;22.29;92.36
73817;BME280;62146;53.232;-1.304;2022-10-22T13:45:13;99695.59;;;22.34;92.19
73817;BME280;62146;53.232;-1.304;2022-10-22T13:47:41;99702.72;;;22.39;92.72
73817;BME280;62146;53.232;-1.304;2022-10-22T13:50:13;99708.94;;;22.39;92.69
73817;BME280;62146;53.232;-1.304;2022-10-22T13:52:46;99706.56;;;22.38;92.68
73817;BME280;62146;53.232;-1.304;2022-10-22T13:55:15;99706.28;;;22.31;92.66
73817;BME280;62146;53.232;-1.304;2022-10-22T13:57:43;99709.06;;;22.23;92.45
73817;BME280;62146;53.232;-1.304;2022-10-22T14:00:12;99706.44;;;22.14;92.49
73817;BME280;62146;53.232;-1.304;2022-10-22T14:02:40;99712.09;;;22.01;92.08
73817;BME280;62146;53.232;-1.304;2022-10-22T14:05:08;99714.72;;;21.89;91.98
73817;BME280;62146;53.232;-1.304;2022-10-22T14:07:35;99712.28;;;21.76;91.68
73817;BME280;62146;53.232;-1.304;2022-10-22T14:10:13;99718.75;;;21.63;90.75
73817;BME280;62146;53.232;-1.304;2022-10-22T14:12:40;99717.38;;;21.49;90.48
73817;BME280;62146;53.232;-1.304;2022-10-22T14:15:10;99721.91;;;21.37;90.68
73817;BME280;62146;53.232;-1.304;2022-10-22T14:17:38;99706.69;;;21.24;90.27
73817;BME280;62146;53.232;-1.304;2022-10-22T14:20:06;99719.28;;;21.12;89.97
73817;BME280;62146;53.232;-1.304;2022-10-22T14:22:34;99720.44;;;21.02;89.54
73817;BME280;62146;53.232;-1.304;2022-10-22T14:25:01;99720.78;;;20.93;89.57
73817;BME280;62146;53.232;-1.304;2022-10-22T14:27:27;99721.94;;;20.83;89.06
73817;BME280;62146;53.232;-1.304;2022-10-22T14:29:54;99711.63;;;20.77;89.65
73817;BME280;62146;53.232;-1.304;2022-10-22T14:32:26;99710.72;;;20.65;88.97
73817;BME280;62146;53.232;-1.304;2022-10-22T14:34:53;99712.16;;;20.62;88.96
73817;BME280;62146;53.232;-1.304;2022-10-22T14:37:19;99714.53;;;20.55;88.77
73817;BME280;62146;53.232;-1.304;2022-10-22T14:39:46;99722.63;;;20.47;88.59
73817;BME280;62146;53.232;-1.304;2022-10-22T14:42:18;99714.69;;;20.42;88.75
73817;BME280;62146;53.232;-1.304;2022-10-22T14:44:45;99723.75;;;20.38;88.46
73817;BME280;62146;53.232;-1.304;2022-10-22T14:47:12;99720.75;;;20.31;88.19
73817;BME280;62146;53.232;-1.304;2022-10-22T14:49:38;99725.19;;;20.27;87.97
73817;BME280;62146;53.232;-1.304;2022-10-22T14:52:05;99730.72;;;20.22;87.86
73817;BME280;62146;53.232;-1.304;2022-10-22T14:54:34;99722.00;;;20.16;87.56
73817;BME280;62146;53.232;-1.304;2022-10-22T14:57:02;99718.38;;;20.13;87.97
73817;BME280;62146;53.232;-1.304;2022-10-22T14:59:29;99728.53;;;20.07;88.00
73817;BME280;62146;53.232;-1.304;2022-10-22T15:01:56;99726.75;;;20.03;87.73
73817;BME280;62146;53.232;-1.304;2022-10-22T15:04:23;99733.09;;;19.98;87.76
73817;BME280;62146;53.232;-1.304;2022-10-22T15:06:51;99725.50;;;19.92;87.86